Time;durP1;ratioP1;P1;durP2;ratioP2;P2;SDS_P1;SDS_P2;PMS_P1;PMS_P2;Temp;Humidity;BMP_temperature;BMP_pressure;BME280_temperature;BME280_humidity;BME280_pressure;Samples;Min_cycle;Max_cycle;Signal;HPM_P1;HPM_P2
2023/08/22 00:02:22;;;;;;;8.43;2.90;;;;;;;-148.88;100.00;-17125.47;5032631;28;20033;-87
2023/08/22 00:04:47;;;;;;;9.15;3.70;;;;;;;-148.88;100.00;-17125.47;5033602;28;20030;-88
2023/08/22 00:07:13;;;;;;;5.93;2.88;;;;;;;-148.88;100.00;-17125.47;5033957;28;20033;-87
2023/08/22 00:09:38;;;;;;;6.97;3.30;;;;;;;-148.88;100.00;-17125.47;5033765;28;20163;-88
2023/08/22 00:12:05;;;;;;;11.52;4.00;;;;;;;-148.88;100.00;-17125.47;5033611;28;20024;-88
2023/08/22 00:14:31;;;;;;;6.18;3.80;;;;;;;-148.88;100.00;-17125.47;5033673;28;20075;-88
2023/08/22 00:16:56;;;;;;;9.45;3.95;;;;;;;-148.88;100.00;-17125.47;5032621;28;20021;-88
2023/08/22 00:19:21;;;;;;;8.57;4.63;;;;;;;-148.88;100.00;-17125.47;5032658;28;20035;-87
2023/08/22 00:21:47;;;;;;;9.98;4.30;;;;;;;-148.88;100.00;-17125.47;5034099;28;20396;-87
2023/08/22 00:24:13;;;;;;;7.72;4.50;;;;;;;-148.88;100.00;-17125.47;5032670;28;20112;-88
2023/08/22 00:26:38;;;;;;;8.90;5.25;;;;;;;-148.88;100.00;-17125.47;5032513;28;20394;-88
2023/08/22 00:29:04;;;;;;;10.50;4.85;;;;;;;-148.88;100.00;-17125.47;5032298;28;20022;-88
2023/08/22 00:31:29;;;;;;;11.38;4.82;;;;;;;-148.88;100.00;-17125.47;5032290;28;20092;-88
2023/08/22 00:33:54;;;;;;;9.90;5.00;;;;;;;-148.88;100.00;-17125.47;5032264;28;20061;-87
2023/08/22 00:36:20;;;;;;;6.05;4.57;;;;;;;-148.88;100.00;-17125.47;5032233;28;20382;-86
2023/08/22 00:38:45;;;;;;;8.32;4.78;;;;;;;-148.88;100.00;-17125.47;5031986;28;20029;-87
2023/08/22 00:41:10;;;;;;;9.27;5.60;;;;;;;-148.88;100.00;-17125.47;5032099;28;20044;-88
2023/08/22 00:43:36;;;;;;;11.73;5.68;;;;;;;-148.88;100.00;-17125.47;5032280;28;20121;-87
2023/08/22 00:46:02;;;;;;;10.73;5.05;;;;;;;-148.88;100.00;-17125.47;5032204;28;20047;-88
2023/08/22 00:48:27;;;;;;;8.13;4.63;;;;;;;-148.88;100.00;-17125.47;5032245;28;20338;-87
2023/08/22 00:50:53;;;;;;;10.15;4.82;;;;;;;-148.88;100.00;-17125.47;5032117;28;20079;-88
2023/08/22 00:53:18;;;;;;;9.75;4.85;;;;;;;-148.88;100.00;-17125.47;5032057;28;20032;-89
2023/08/22 00:55:44;;;;;;;7.68;4.78;;;;;;;-148.88;100.00;-17125.47;5032000;28;20025;-88
2023/08/22 00:58:10;;;;;;;8.60;4.78;;;;;;;-148.88;100.00;-17125.47;5031986;28;20072;-88
2023/08/22 01:00:37;;;;;;;5.72;4.40;;;;;;;-148.88;100.00;-17125.47;5031711;28;20025;-88
2023/08/22 01:03:03;;;;;;;8.65;4.20;;;;;;;-148.88;100.00;-17125.47;5033851;28;20400;-87
2023/08/22 01:05:33;;;;;;;8.07;4.30;;;;;;;-148.88;100.00;-17125.47;5031089;28;20021;-87
2023/08/22 01:08:11;;;;;;;7.00;4.32;;;;;;;-148.88;100.00;-17125.47;5031616;28;20025;-87
2023/08/22 01:10:43;;;;;;;5.65;4.13;;;;;;;-148.88;100.00;-17125.47;5031706;28;20112;-87
2023/08/22 01:13:20;;;;;;;8.45;4.47;;;;;;;-148.88;100.00;-17125.47;5031743;28;20520;-88
2023/08/22 01:15:49;;;;;;;8.80;4.57;;;;;;;-148.88;100.00;-17125.47;5031637;28;20021;-87
2023/08/22 01:18:18;;;;;;;6.10;4.57;;;;;;;-148.88;100.00;-17125.47;5031589;28;20083;-87
2023/08/22 01:20:43;;;;;;;7.18;4.75;;;;;;;-148.88;100.00;-17125.47;5031986;28;20357;-87
2023/08/22 01:23:09;;;;;;;6.72;4.40;;;;;;;-148.88;100.00;-17125.47;5031507;28;20087;-87
2023/08/22 01:25:36;;;;;;;8.63;4.15;;;;;;;-148.88;100.00;-17125.47;5031448;28;20566;-88
2023/08/22 01:28:08;;;;;;;7.00;4.82;;;;;;;-148.88;100.00;-17125.47;5032115;28;20022;-87
2023/08/22 01:30:55;;;;;;;8.35;4.78;;;;;;;-148.88;100.00;-17125.47;5031315;28;20037;-87
2023/08/22 01:33:36;;;;;;;6.53;4.63;;;;;;;-148.88;100.00;-17125.47;5031440;28;20099;-88
2023/08/22 01:36:05;;;;;;;8.10;4.15;;;;;;;-148.88;100.00;-17125.47;5032231;28;20036;-88
2023/08/22 01:38:33;;;;;;;6.32;4.53;;;;;;;-148.88;100.00;-17125.47;5031793;28;20037;-88
2023/08/22 01:40:59;;;;;;;7.63;4.53;;;;;;;-148.88;100.00;-17125.47;5031778;28;20552;-88
2023/08/22 01:43:25;;;;;;;7.40;5.20;;;;;;;-148.88;100.00;-17125.47;5031849;28;20032;-87
2023/08/22 01:45:51;;;;;;;8.45;4.65;;;;;;;-148.88;100.00;-17125.47;5031675;28;20108;-87
2023/08/22 01:48:16;;;;;;;8.18;4.63;;;;;;;-148.88;100.00;-17125.47;5032535;28;20064;-88
2023/08/22 01:50:41;;;;;;;8.48;4.78;;;;;;;-148.88;100.00;-17125.47;5031686;28;20053;-87
2023/08/22 01:53:07;;;;;;;9.25;5.32;;;;;;;-148.88;100.00;-17125.47;5031906;28;20025;-87
2023/08/22 01:55:32;;;;;;;6.68;4.90;;;;;;;-148.88;100.00;-17125.47;5032594;28;20060;-87
2023/08/22 01:57:58;;;;;;;8.45;5.35;;;;;;;-148.88;100.00;-17125.47;5031742;28;20018;-87
2023/08/22 02:00:23;;;;;;;8.82;5.38;;;;;;;-148.88;100.00;-17125.47;5031460;28;20495;-88
2023/08/22 02:02:48;;;;;;;10.57;5.63;;;;;;;-148.88;100.00;-17125.47;5031732;28;20049;-86
2023/08/22 02:05:14;;;;;;;9.82;5.50;;;;;;;-148.88;100.00;-17125.47;5031718;28;20471;-88
2023/08/22 02:07:39;;;;;;;10.10;5.03;;;;;;;-148.88;100.00;-17125.47;5031813;28;20029;-87
2023/08/22 02:10:06;;;;;;;7.55;5.07;;;;;;;-148.88;100.00;-17125.47;5032493;28;20065;-87
2023/08/22 02:12:32;;;;;;;8.93;5.50;;;;;;;-148.88;100.00;-17125.47;5031472;28;20025;-88
2023/08/22 02:14:57;;;;;;;11.18;5.78;;;;;;;-148.88;100.00;-17125.47;5031489;28;20026;-87
2023/08/22 02:17:22;;;;;;;7.78;5.90;;;;;;;-148.88;100.00;-17125.47;5033947;28;20091;-87
2023/08/22 02:19:48;;;;;;;8.50;6.20;;;;;;;-148.88;100.00;-17125.47;5035612;28;20040;-87
2023/08/22 02:22:13;;;;;;;8.05;6.28;;;;;;;-148.88;100.00;-17125.47;5036361;28;20032;-87
2023/08/22 02:24:38;;;;;;;8.70;5.40;;;;;;;-148.88;100.00;-17125.47;5043250;28;20385;-87
2023/08/22 02:27:04;;;;;;;9.85;5.70;;;;;;;-148.88;100.00;-17125.47;5041652;28;20112;-87
2023/08/22 02:29:30;;;;;;;11.40;6.18;;;;;;;-148.88;100.00;-17125.47;5035766;28;20049;-88
2023/08/22 02:31:55;;;;;;;10.80;6.05;;;;;;;-148.88;100.00;-17125.47;5036773;28;20021;-87
2023/08/22 02:34:21;;;;;;;10.45;6.22;;;;;;;-148.88;100.00;-17125.47;5040508;28;20432;-87
2023/08/22 02:36:47;;;;;;;9.30;5.88;;;;;;;-148.88;100.00;-17125.47;5035105;28;20017;-87
2023/08/22 02:39:13;;;;;;;9.00;6.10;;;;;;;-148.88;100.00;-17125.47;5035495;28;20094;-87
2023/08/22 02:41:39;;;;;;;8.57;6.10;;;;;;;-148.88;100.00;-17125.47;5034733;28;20063;-87
2023/08/22 02:44:04;;;;;;;9.10;6.43;;;;;;;-148.88;100.00;-17125.47;5035425;28;20083;-86
2023/08/22 02:46:30;;;;;;;8.57;6.18;;;;;;;-148.88;100.00;-17125.47;5034994;28;20136;-88
2023/08/22 02:48:56;;;;;;;12.20;6.20;;;;;;;-148.88;100.00;-17125.47;5035708;28;20022;-87
2023/08/22 02:51:21;;;;;;;10.95;6.60;;;;;;;-148.88;100.00;-17125.47;5034736;28;20398;-87
2023/08/22 02:53:46;;;;;;;9.43;6.45;;;;;;;-148.88;100.00;-17125.47;5034588;28;20467;-87
2023/08/22 02:56:12;;;;;;;8.57;6.22;;;;;;;-148.88;100.00;-17125.47;5034541;28;20076;-88
2023/08/22 02:58:37;;;;;;;10.90;6.35;;;;;;;-148.88;100.00;-17125.47;5034907;28;20032;-87
2023/08/22 03:01:25;;;;;;;7.90;5.85;;;;;;;-148.88;100.00;-17125.47;5050846;23;20033;-88
2023/08/22 03:04:06;;;;;;;10.20;5.78;;;;;;;-148.88;100.00;-17125.47;4978816;28;20050;-88
2023/08/22 03:06:36;;;;;;;10.05;5.68;;;;;;;-148.88;100.00;-17125.47;4979131;28;20089;-88
2023/08/22 03:09:12;;;;;;;8.15;5.55;;;;;;;-148.88;100.00;-17125.47;4979586;28;20039;-88
2023/08/22 03:11:58;;;;;;;7.70;5.57;;;;;;;-148.88;100.00;-17125.47;4983971;28;20026;-88
2023/08/22 03:15:10;;;;;;;6.78;5.00;;;;;;;-148.88;100.00;-17125.47;4996742;28;20034;-88
2023/08/22 03:17:52;;;;;;;8.13;5.38;;;;;;;-148.88;100.00;-17125.47;4995253;28;20042;-88
2023/08/22 03:20:17;;;;;;;8.68;4.68;;;;;;;-148.88;100.00;-17125.47;4994013;28;20035;-88
2023/08/22 03:22:43;;;;;;;9.43;4.75;;;;;;;-148.88;100.00;-17125.47;4994762;28;20037;-89
2023/08/22 03:25:08;;;;;;;10.27;4.85;;;;;;;-148.88;100.00;-17125.47;4996459;28;20049;-88
2023/08/22 03:27:34;;;;;;;6.82;5.30;;;;;;;-148.88;100.00;-17125.47;4995727;28;20410;-89
2023/08/22 03:29:59;;;;;;;10.93;6.03;;;;;;;-148.88;100.00;-17125.47;4994227;28;20440;-89
2023/08/22 03:32:27;;;;;;;8.95;5.88;;;;;;;-148.88;100.00;-17125.47;4994941;28;20389;-88
2023/08/22 03:34:53;;;;;;;9.13;5.45;;;;;;;-148.88;100.00;-17125.47;4995010;28;20449;-88
2023/08/22 03:37:18;;;;;;;10.10;6.13;;;;;;;-148.88;100.00;-17125.47;4996656;28;20114;-86
2023/08/22 03:39:43;;;;;;;13.73;6.60;;;;;;;-148.88;100.00;-17125.47;4995618;28;20101;-84
2023/08/22 03:42:09;;;;;;;12.90;7.13;;;;;;;-148.88;100.00;-17125.47;4994160;28;20022;-86
2023/08/22 03:44:34;;;;;;;12.68;6.63;;;;;;;-148.88;100.00;-17125.47;4995333;28;20062;-85
2023/08/22 03:47:00;;;;;;;11.43;6.97;;;;;;;-148.88;100.00;-17125.47;4993564;28;20401;-87
2023/08/22 03:49:26;;;;;;;15.60;6.97;;;;;;;-148.88;100.00;-17125.47;4993904;28;20476;-86
2023/08/22 03:51:51;;;;;;;11.90;6.88;;;;;;;-148.88;100.00;-17125.47;4993357;28;20029;-86
2023/08/22 03:54:16;;;;;;;11.68;6.30;;;;;;;-148.88;100.00;-17125.47;4995449;28;20026;-86
2023/08/22 03:56:42;;;;;;;12.40;7.03;;;;;;;-148.88;100.00;-17125.47;4994725;28;20054;-85
2023/08/22 03:59:07;;;;;;;11.75;7.45;;;;;;;-148.88;100.00;-17125.47;4995809;28;20029;-86
2023/08/22 04:01:35;;;;;;;11.45;7.10;;;;;;;-148.88;100.00;-17125.47;4994215;28;20030;-85
2023/08/22 04:04:01;;;;;;;9.52;6.95;;;;;;;-148.88;100.00;-17125.47;4995621;28;20034;-85
2023/08/22 04:06:26;;;;;;;13.40;7.93;;;;;;;-148.88;100.00;-17125.47;4995530;28;20037;-85
2023/08/22 04:08:51;;;;;;;9.88;6.95;;;;;;;-148.88;100.00;-17125.47;4994837;28;20053;-85
2023/08/22 04:11:17;;;;;;;12.00;7.38;;;;;;;-148.88;100.00;-17125.47;4994903;28;20061;-86
2023/08/22 04:13:42;;;;;;;12.10;7.25;;;;;;;-148.88;100.00;-17125.47;4995281;28;20101;-86
2023/08/22 04:16:08;;;;;;;11.20;6.93;;;;;;;-148.88;100.00;-17125.47;4995986;28;20466;-87
2023/08/22 04:18:33;;;;;;;10.57;7.07;;;;;;;-148.88;100.00;-17125.47;4995540;28;20023;-86
2023/08/22 04:20:58;;;;;;;10.95;7.47;;;;;;;-148.88;100.00;-17125.47;4996272;28;20482;-87
2023/08/22 04:23:24;;;;;;;9.75;7.93;;;;;;;-148.88;100.00;-17125.47;4996926;28;20022;-87
2023/08/22 04:25:49;;;;;;;9.73;6.22;;;;;;;-148.88;100.00;-17125.47;4995696;28;20022;-87
2023/08/22 04:28:15;;;;;;;10.98;5.88;;;;;;;-148.88;100.00;-17125.47;4997620;28;20433;-85
2023/08/22 04:30:43;;;;;;;11.20;6.47;;;;;;;-148.88;100.00;-17125.47;4997213;28;20030;-86
2023/08/22 04:33:08;;;;;;;11.52;7.55;;;;;;;-148.88;100.00;-17125.47;4994568;28;20022;-84
2023/08/22 04:35:33;;;;;;;11.73;6.97;;;;;;;-148.88;100.00;-17125.47;4994353;28;20425;-86
2023/08/22 04:37:59;;;;;;;10.88;7.50;;;;;;;-148.88;100.00;-17125.47;4995180;28;20080;-86
2023/08/22 04:40:24;;;;;;;14.50;7.50;;;;;;;-148.88;100.00;-17125.47;4995691;28;20030;-86
2023/08/22 04:42:49;;;;;;;12.00;8.18;;;;;;;-148.88;100.00;-17125.47;4996962;28;20022;-87
2023/08/22 04:45:15;;;;;;;11.43;7.65;;;;;;;-148.88;100.00;-17125.47;4997250;28;20473;-86
2023/08/22 04:47:41;;;;;;;13.43;7.80;;;;;;;-148.88;100.00;-17125.47;4994307;28;20019;-86
2023/08/22 04:50:07;;;;;;;10.80;7.05;;;;;;;-148.88;100.00;-17125.47;4996292;28;20026;-85
2023/08/22 04:52:32;;;;;;;11.40;7.22;;;;;;;-148.88;100.00;-17125.47;4995196;28;20036;-87
2023/08/22 04:54:57;;;;;;;9.02;6.80;;;;;;;-148.88;100.00;-17125.47;4995139;28;20037;-85
2023/08/22 04:57:26;;;;;;;11.13;6.22;;;;;;;-148.88;100.00;-17125.47;4993827;28;20053;-87
2023/08/22 04:59:53;;;;;;;11.25;6.45;;;;;;;-148.88;100.00;-17125.47;4993903;28;20037;-87
2023/08/22 05:02:22;;;;;;;9.57;6.68;;;;;;;-148.88;100.00;-17125.47;4993679;28;20026;-87
2023/08/22 05:04:48;;;;;;;16.05;6.63;;;;;;;-148.88;100.00;-17125.47;4994885;28;20038;-86
2023/08/22 05:07:13;;;;;;;12.65;7.15;;;;;;;-148.88;100.00;-17125.47;4995410;28;20101;-86
2023/08/22 05:09:39;;;;;;;9.60;6.75;;;;;;;-148.88;100.00;-17125.47;4995217;28;20473;-87
2023/08/22 05:12:04;;;;;;;10.02;6.38;;;;;;;-148.88;100.00;-17125.47;4995890;28;20100;-86
2023/08/22 05:14:32;;;;;;;11.93;7.20;;;;;;;-148.88;100.00;-17125.47;4994981;28;20076;-86
2023/08/22 05:16:58;;;;;;;9.88;7.10;;;;;;;-148.88;100.00;-17125.47;4994714;28;20030;-86
2023/08/22 05:19:23;;;;;;;13.90;7.07;;;;;;;-148.88;100.00;-17125.47;4993240;28;20125;-85
2023/08/22 05:21:48;;;;;;;9.95;6.00;;;;;;;-148.88;100.00;-17125.47;4995050;28;20029;-86
2023/08/22 05:24:14;;;;;;;13.77;7.20;;;;;;;-148.88;100.00;-17125.47;4995497;28;20041;-85
2023/08/22 05:26:39;;;;;;;11.00;6.70;;;;;;;-148.88;100.00;-17125.47;4995030;28;20489;-86
2023/08/22 05:29:05;;;;;;;10.52;6.88;;;;;;;-148.88;100.00;-17125.47;4993921;28;20482;-86
2023/08/22 05:31:30;;;;;;;9.23;6.30;;;;;;;-148.88;100.00;-17125.47;4993852;28;20037;-85
2023/08/22 05:33:55;;;;;;;9.95;5.97;;;;;;;-148.88;100.00;-17125.47;4994136;28;20033;-86
2023/08/22 05:36:21;;;;;;;10.40;5.90;;;;;;;-148.88;100.00;-17125.47;4995185;28;20512;-85
2023/08/22 05:38:46;;;;;;;11.13;6.32;;;;;;;-148.88;100.00;-17125.47;4993674;28;20028;-85
2023/08/22 05:41:13;;;;;;;8.05;6.45;;;;;;;-148.88;100.00;-17125.47;4994350;28;20520;-86
2023/08/22 05:43:38;;;;;;;10.80;6.38;;;;;;;-148.88;100.00;-17125.47;4993053;28;20114;-86
2023/08/22 05:46:04;;;;;;;8.95;7.00;;;;;;;-148.88;100.00;-17125.47;4992878;28;20110;-86
2023/08/22 05:48:29;;;;;;;9.50;6.60;;;;;;;-148.88;100.00;-17125.47;4994123;28;20377;-85
2023/08/22 05:50:56;;;;;;;10.35;6.28;;;;;;;-148.88;100.00;-17125.47;4995385;28;20508;-85
2023/08/22 05:53:22;;;;;;;11.30;7.80;;;;;;;-148.88;100.00;-17125.47;4999705;28;20022;-86
2023/08/22 05:55:47;;;;;;;10.02;6.65;;;;;;;-148.88;100.00;-17125.47;4998572;28;20539;-86
2023/08/22 05:58:13;;;;;;;8.20;6.55;;;;;;;-148.88;100.00;-17125.47;4998610;28;20367;-86
2023/08/22 06:00:38;;;;;;;13.93;7.20;;;;;;;-148.88;100.00;-17125.47;4999619;28;20501;-86
2023/08/22 06:03:04;;;;;;;9.55;6.38;;;;;;;-148.88;100.00;-17125.47;4997400;28;20117;-86
2023/08/22 06:05:29;;;;;;;10.27;6.95;;;;;;;-148.88;100.00;-17125.47;4999283;28;20085;-84
2023/08/22 06:07:54;;;;;;;14.70;6.97;;;;;;;-148.88;100.00;-17125.47;4999489;28;20054;-87
2023/08/22 06:10:22;;;;;;;14.25;7.32;;;;;;;-148.88;100.00;-17125.47;4998045;28;20046;-84
2023/08/22 06:12:47;;;;;;;12.40;6.60;;;;;;;-148.88;100.00;-17125.47;5000875;28;20531;-85
2023/08/22 06:15:13;;;;;;;12.73;6.80;;;;;;;-148.88;100.00;-17125.47;5004110;28;20026;-84
2023/08/22 06:17:38;;;;;;;11.27;7.72;;;;;;;-148.88;100.00;-17125.47;5000211;28;20029;-86
2023/08/22 06:20:04;;;;;;;9.15;6.55;;;;;;;-148.88;100.00;-17125.47;5000022;28;20034;-85
2023/08/22 06:22:30;;;;;;;8.70;6.43;;;;;;;-148.88;100.00;-17125.47;4997731;28;20497;-85
2023/08/22 06:24:55;;;;;;;10.15;7.00;;;;;;;-148.88;100.00;-17125.47;4999117;28;20065;-86
2023/08/22 06:27:20;;;;;;;10.95;6.70;;;;;;;-148.88;100.00;-17125.47;5006049;28;20021;-85
2023/08/22 06:29:46;;;;;;;10.40;6.97;;;;;;;-148.88;100.00;-17125.47;4996887;28;20049;-86
2023/08/22 06:32:11;;;;;;;10.68;6.35;;;;;;;-148.88;100.00;-17125.47;4998258;28;20393;-85
2023/08/22 06:34:37;;;;;;;11.90;6.40;;;;;;;-148.88;100.00;-17125.47;4996606;28;20030;-87
2023/08/22 06:37:05;;;;;;;11.90;6.50;;;;;;;-148.88;100.00;-17125.47;4996174;28;20026;-87
2023/08/22 06:39:30;;;;;;;11.23;6.53;;;;;;;-148.88;100.00;-17125.47;4996927;28;20417;-87
2023/08/22 06:41:55;;;;;;;10.98;6.22;;;;;;;-148.88;100.00;-17125.47;4996229;28;20029;-86
2023/08/22 06:44:21;;;;;;;10.05;5.70;;;;;;;-148.88;100.00;-17125.47;4997580;28;20478;-86
2023/08/22 06:46:46;;;;;;;10.60;8.20;;;;;;;-148.88;100.00;-17125.47;4998398;28;20026;-86
2023/08/22 06:49:11;;;;;;;13.65;6.22;;;;;;;-148.88;100.00;-17125.47;4997067;28;20100;-86
2023/08/22 06:51:37;;;;;;;10.90;5.65;;;;;;;-148.88;100.00;-17125.47;4996708;28;20038;-86
2023/08/22 06:54:02;;;;;;;9.13;5.88;;;;;;;-148.88;100.00;-17125.47;4996296;28;20042;-87
2023/08/22 06:56:27;;;;;;;7.22;5.50;;;;;;;-148.88;100.00;-17125.47;4995732;28;20045;-86
2023/08/22 06:58:53;;;;;;;9.55;5.85;;;;;;;-148.88;100.00;-17125.47;4995930;28;20113;-87
2023/08/22 07:01:18;;;;;;;10.95;6.47;;;;;;;-148.88;100.00;-17125.47;4995684;28;20026;-87
2023/08/22 07:03:44;;;;;;;11.18;5.70;;;;;;;-148.88;100.00;-17125.47;4989825;28;20038;-87
2023/08/22 07:06:09;;;;;;;10.05;5.35;;;;;;;-148.88;100.00;-17125.47;4995826;28;20030;-87
2023/08/22 07:08:35;;;;;;;10.65;6.10;;;;;;;-148.88;100.00;-17125.47;4997408;28;20032;-86
2023/08/22 07:11:04;;;;;;;10.50;5.78;;;;;;;-148.88;100.00;-17125.47;4996941;28;20559;-87
2023/08/22 07:13:33;;;;;;;9.57;5.95;;;;;;;-148.88;100.00;-17125.47;4996726;28;20525;-87
2023/08/22 07:16:06;;;;;;;12.75;5.28;;;;;;;-148.88;100.00;-17125.47;4996619;28;20026;-87
2023/08/22 07:18:32;;;;;;;;;;;;;;;-148.88;100.00;-17125.47;5013029;28;20027;-88
2023/08/22 07:21:02;;;;;;;9.02;5.00;;;;;;;-148.88;100.00;-17125.47;4996374;28;19962;-87
2023/08/22 07:23:39;;;;;;;8.32;5.20;;;;;;;-148.88;100.00;-17125.47;4997005;28;20030;-88
2023/08/22 07:26:26;;;;;;;12.32;5.22;;;;;;;-148.88;100.00;-17125.47;4995596;28;20404;-88
2023/08/22 07:28:58;;;;;;;11.35;5.22;;;;;;;-148.88;100.00;-17125.47;4995949;28;20026;-88
2023/08/22 07:31:42;;;;;;;8.45;4.65;;;;;;;-148.88;100.00;-17125.47;4994430;28;20058;-88
2023/08/22 07:34:08;;;;;;;6.50;4.63;;;;;;;-148.88;100.00;-17125.47;4996438;28;20030;-86
2023/08/22 07:36:36;;;;;;;6.57;4.47;;;;;;;-148.88;100.00;-17125.47;4996566;28;20037;-86
2023/08/22 07:39:04;;;;;;;6.25;3.92;;;;;;;-148.88;100.00;-17125.47;4996719;28;20027;-87
2023/08/22 07:41:30;;;;;;;10.68;5.05;;;;;;;-148.88;100.00;-17125.47;4994589;28;20041;-87
2023/08/22 07:44:19;;;;;;;;;;;;;;;;;;;;;
2023/08/22 07:46:57;;;;;;;6.40;3.28;;;;;;;-148.88;98.02;-17125.47;4996459;28;20040;-87
2023/08/22 07:49:28;;;;;;;6.30;2.92;;;;;;;-148.88;96.62;-17125.47;4996533;28;20073;-86
2023/08/22 07:51:59;;;;;;;5.38;2.58;;;;;;;-148.88;94.58;-17125.47;4995004;28;20030;-87
2023/08/22 07:54:27;;;;;;;4.82;2.80;;;;;;;-148.88;94.99;-17125.47;4993952;28;20497;-87
2023/08/22 07:56:53;;;;;;;6.65;2.78;;;;;;;-148.88;92.80;-17125.47;4996084;28;20132;-87
2023/08/22 07:59:33;;;;;;;10.45;2.80;;;;;;;-148.88;93.77;-17125.47;4994380;28;20548;-86
2023/08/22 08:02:05;;;;;;;7.72;3.17;;;;;;;-148.88;94.27;-17125.47;4996190;28;20105;-87
2023/08/22 08:04:34;;;;;;;5.28;2.90;;;;;;;-148.88;94.85;-17125.47;4994113;28;20042;-85
2023/08/22 08:07:00;;;;;;;7.88;3.28;;;;;;;-148.88;96.32;-17125.47;4995298;28;20027;-86
2023/08/22 08:09:29;;;;;;;6.53;3.00;;;;;;;-148.88;97.08;-17125.47;4994562;28;20065;-87
2023/08/22 08:12:19;;;;;;;5.35;3.25;;;;;;;-148.88;94.36;-17125.47;4994428;28;20026;-86
2023/08/22 08:15:03;;;;;;;9.00;3.50;;;;;;;-148.88;96.65;-17125.47;4994597;28;20421;-86
2023/08/22 08:17:33;;;;;;;7.78;3.55;;;;;;;-148.88;96.06;-17125.47;4995080;28;20030;-87
2023/08/22 08:20:14;;;;;;;9.90;3.35;;;;;;;-148.88;96.15;-17125.47;4995274;28;20038;-87
2023/08/22 08:23:26;;;;;;;8.38;3.67;;;;;;;-148.88;95.45;-17125.47;4994858;28;20054;-87
2023/08/22 08:25:52;;;;;;;6.37;3.40;;;;;;;-148.88;95.55;-17125.47;4994196;28;20421;-87
2023/08/22 08:28:27;;;;;;;8.55;3.20;;;;;;;-148.88;94.42;-17125.47;4994115;28;20489;-87
2023/08/22 08:30:56;;;;;;;9.35;3.92;;;;;;;-148.88;91.95;-17125.47;4993497;28;20097;-87
2023/08/22 08:33:39;;;;;;;7.45;3.33;;;;;;;-148.88;92.04;-17125.47;4995308;28;20026;-87
2023/08/22 08:36:15;;;;;;;10.57;3.25;;;;;;;-148.88;90.24;-17125.47;4994269;28;20022;-87
2023/08/22 08:38:40;;;;;;;6.32;3.00;;;;;;;-148.88;91.14;-17125.47;4993973;28;20509;-87
2023/08/22 08:41:18;;;;;;;8.98;3.40;;;;;;;-148.88;91.90;-17125.47;4994064;28;20037;-88
2023/08/22 08:43:56;;;;;;;5.03;2.60;;;;;;;-148.88;90.33;-17125.47;5010467;28;20110;-87
2023/08/22 08:46:25;;;;;;;9.18;3.33;;;;;;;-148.88;90.29;-17125.47;4994136;28;20033;-87
2023/08/22 08:49:05;;;;;;;7.30;3.53;;;;;;;-148.88;92.57;-17125.47;4994247;28;20388;-86
2023/08/22 08:51:44;;;;;;;6.55;3.30;;;;;;;-148.88;89.35;-17125.47;4994957;28;20026;-87
2023/08/22 08:54:16;;;;;;;9.20;3.67;;;;;;;-148.88;91.06;-17125.47;5010147;28;20397;-87
2023/08/22 08:56:44;;;;;;;6.63;3.33;;;;;;;-148.88;89.29;-17125.47;4994252;28;20034;-87
2023/08/22 08:59:15;;;;;;;9.80;3.55;;;;;;;-148.88;92.21;-17125.47;4993526;28;20036;-87
2023/08/22 09:02:04;;;;;;;8.13;3.80;;;;;;;-148.88;90.83;-17125.47;4993243;28;20034;-87
2023/08/22 09:04:38;;;;;;;10.07;3.97;;;;;;;-148.88;92.15;-17125.47;4994651;28;20046;-87
2023/08/22 09:07:12;;;;;;;11.40;4.75;;;;;;;-148.88;91.31;-17125.47;5009551;28;20077;-87
2023/08/22 09:09:48;;;;;;;8.10;4.20;;;;;;;-148.88;91.32;-17125.47;4994016;28;20026;-86
2023/08/22 09:12:19;;;;;;;10.50;4.32;;;;;;;-148.88;88.41;-17125.47;4993575;28;20093;-87
2023/08/22 09:14:49;;;;;;;8.27;4.20;;;;;;;-148.88;87.16;-17125.47;4993056;28;20029;-87
2023/08/22 09:17:19;;;;;;;8.48;4.43;;;;;;;-148.88;86.33;-17125.47;4993956;28;20030;-87
2023/08/22 09:19:44;;;;;;;9.52;4.38;;;;;;;-148.88;88.37;-17125.47;4993358;28;20037;-87
2023/08/22 09:22:14;;;;;;;6.97;4.20;;;;;;;-148.88;87.01;-17125.47;4992783;28;20026;-87
2023/08/22 09:24:50;;;;;;;7.38;4.20;;;;;;;-148.88;84.77;-17125.47;4993097;28;20041;-87
2023/08/22 09:27:15;;;;;;;6.28;4.10;;;;;;;-148.88;85.90;-17125.47;4992557;28;20101;-87
2023/08/22 09:29:42;;;;;;;10.82;4.25;;;;;;;-148.88;84.14;-17125.47;4994510;28;20449;-86
2023/08/22 09:32:07;;;;;;;6.03;3.92;;;;;;;-148.88;80.93;-17125.47;4994096;28;20030;-87
2023/08/22 09:34:34;;;;;;;8.63;3.20;;;;;;;-148.88;81.34;-17125.47;4992719;28;20117;-87
2023/08/22 09:37:03;;;;;;;6.18;3.35;;;;;;;-148.88;82.71;-17125.47;4994117;28;20022;-87
2023/08/22 09:39:33;;;;;;;8.57;4.20;;;;;;;-148.88;79.55;-17125.47;4992784;28;20037;-88
2023/08/22 09:41:59;;;;;;;8.25;3.50;;;;;;;-148.88;83.19;-17125.47;4993517;28;20050;-86
2023/08/22 09:44:26;;;;;;;8.27;3.72;;;;;;;-148.88;81.78;-17125.47;4993129;28;20029;-86
2023/08/22 09:46:53;;;;;;;6.03;2.92;;;;;;;-148.88;83.28;-17125.47;4993953;28;20034;-87
2023/08/22 09:49:19;;;;;;;9.55;3.90;;;;;;;-148.88;80.75;-17125.47;4992531;28;20038;-87
2023/08/22 09:51:47;;;;;;;8.75;4.28;;;;;;;-148.88;80.08;-17125.47;4992401;28;20092;-86
2023/08/22 09:54:14;;;;;;;10.00;3.65;;;;;;;-148.88;81.27;-17125.47;4993369;28;20026;-86
2023/08/22 09:56:39;;;;;;;7.25;3.30;;;;;;;-148.88;81.44;-17125.47;4993486;28;20030;-87
2023/08/22 09:59:06;;;;;;;6.60;3.13;;;;;;;-148.88;80.17;-17125.47;4994243;28;20100;-87
2023/08/22 10:01:34;;;;;;;6.47;2.80;;;;;;;-148.88;80.84;-17125.47;4994109;28;20485;-86
2023/08/22 10:04:04;;;;;;;7.18;3.10;;;;;;;-148.88;79.15;-17125.47;4993824;28;20036;-87
2023/08/22 10:06:35;;;;;;;6.38;3.03;;;;;;;-148.88;80.40;-17125.47;4993498;28;20022;-87
2023/08/22 10:09:07;;;;;;;6.90;3.05;;;;;;;-148.88;81.07;-17125.47;4993221;28;20476;-86
2023/08/22 10:11:37;;;;;;;9.05;4.05;;;;;;;-148.88;80.68;-17125.47;4992314;28;20054;-87
2023/08/22 10:14:04;;;;;;;9.30;3.55;;;;;;;-148.88;80.55;-17125.47;4993953;28;20035;-86
2023/08/22 10:16:30;;;;;;;6.95;3.28;;;;;;;-148.88;79.14;-17125.47;4992628;28;20186;-86
2023/08/22 10:19:01;;;;;;;5.07;3.00;;;;;;;-148.88;76.72;-17125.47;4992794;28;20050;-85
2023/08/22 10:21:30;;;;;;;5.95;2.70;;;;;;;-148.88;78.35;-17125.47;4992643;28;20429;-87
2023/08/22 10:23:58;;;;;;;7.03;3.15;;;;;;;-148.88;76.97;-17125.47;4993584;28;20090;-86
2023/08/22 10:26:45;;;;;;;5.00;2.95;;;;;;;-148.88;79.59;-17125.47;5008463;28;20169;-86
2023/08/22 10:29:18;;;;;;;7.50;2.95;;;;;;;-148.88;78.53;-17125.47;5008697;28;20380;-86
2023/08/22 10:32:02;;;;;;;;;;;;;;;-148.88;81.30;-17125.47;4993070;28;20168;-87
2023/08/22 10:34:33;;;;;;;5.55;3.17;;;;;;;-148.88;76.08;-17125.47;4992556;28;19913;-85
2023/08/22 10:37:00;;;;;;;5.07;2.70;;;;;;;-148.88;77.08;-17125.47;4992512;28;20037;-86
2023/08/22 10:39:43;;;;;;;9.63;3.00;;;;;;;-148.88;76.82;-17125.47;4995386;28;20049;-86
2023/08/22 10:42:19;;;;;;;6.10;2.95;;;;;;;-148.88;78.64;-17125.47;4996090;28;20022;-87
2023/08/22 10:44:56;;;;;;;6.45;3.35;;;;;;;-148.88;74.61;-17125.47;4995377;28;20022;-86
2023/08/22 10:47:26;;;;;;;6.00;3.13;;;;;;;-148.88;72.58;-17125.47;4996300;28;20024;-85
2023/08/22 10:49:53;;;;;;;6.07;2.72;;;;;;;-148.88;68.63;-17125.47;4996322;28;20022;-87
2023/08/22 10:52:41;;;;;;;4.03;2.10;;;;;;;-148.88;69.91;-17125.47;4995243;28;20027;-86
2023/08/22 10:55:11;;;;;;;6.40;2.58;;;;;;;-148.88;70.56;-17125.47;4995357;28;20060;-85
2023/08/22 10:57:50;;;;;;;5.35;2.30;;;;;;;-148.88;69.61;-17125.47;4996579;28;20022;-86
2023/08/22 11:00:31;;;;;;;4.60;2.33;;;;;;;-148.88;70.45;-17125.47;4995465;28;20050;-86
2023/08/22 11:03:04;;;;;;;4.78;1.90;;;;;;;-148.88;67.41;-17125.47;4995308;28;20049;-89
2023/08/22 11:05:30;;;;;;;6.05;2.90;;;;;;;-148.88;68.36;-17125.47;4995585;28;20098;-87
2023/08/22 11:07:58;;;;;;;4.63;2.30;;;;;;;-148.88;67.94;-17125.47;4995256;28;20026;-86
2023/08/22 11:10:25;;;;;;;4.22;2.35;;;;;;;-148.88;71.60;-17125.47;4995250;28;20019;-86